Ilioupolis, Greece
Current Conditions -  °F | °C
As of 4:20 AM on Saturday 29 Nov 2014 (Local Time) from LGAV Reporting Station
Broken Clouds Broken Clouds  
Wind Chill: 55°   Ceiling: 2500
Heat Index: 55°   Visibility: 6mi
Dew Point: 52°   Wind: 0mph
Humidity: 88%   Direction: NA
Pressure: 30.27"   Gusts: NA
Location:  37.92°N, 23.75°E
Report Text: LGAV 290120Z 00000KT 9999 BKN025 BKN080 13/11 Q1025 NOSIG
Loading
Personal Weather Stations






























Interactive Weather Map New forecast layout! Learn more

10-Day Weather Forecast

Advertisements
Track Severe Weather on mobile